Time;durP1;ratioP1;P1;durP2;ratioP2;P2;SDS_P1;SDS_P2;PMS_P1;PMS_P2;Temp;Humidity;BMP_temperature;BMP_pressure;BME280_temperature;BME280_humidity;BME280_pressure;Samples;Min_cycle;Max_cycle;Signal;HPM_P1;HPM_P2
2021/06/01 07:33:08;;;;;;;2.88;2.20;;;21.30;96.00;;;;;;6144240;23;20025;-84
2021/06/01 07:35:36;;;;;;;3.65;2.22;;;21.40;95.70;;;;;;6154205;23;20052;-84
2021/06/01 07:38:03;;;;;;;4.25;2.22;;;21.50;95.50;;;;;;6155645;23;20064;-86
2021/06/01 07:40:30;;;;;;;2.97;2.35;;;21.70;95.30;;;;;;6153868;23;20022;-85
2021/06/01 07:42:58;;;;;;;3.15;2.30;;;21.80;95.20;;;;;;6154203;23;20052;-85
2021/06/01 07:45:26;;;;;;;4.78;2.22;;;21.90;94.90;;;;;;6153628;23;20029;-84
2021/06/01 07:47:53;;;;;;;3.90;2.78;;;22.10;94.80;;;;;;6155481;23;20022;-85
2021/06/01 07:50:21;;;;;;;2.88;2.30;;;22.20;94.70;;;;;;6153765;23;20080;-85
2021/06/01 07:52:47;;;;;;;3.45;2.00;;;22.30;94.80;;;;;;6154045;23;20018;-84
2021/06/01 07:55:15;;;;;;;4.45;2.28;;;22.40;94.90;;;;;;6155024;23;20041;-84
2021/06/01 07:57:42;;;;;;;4.53;2.15;;;22.60;95.00;;;;;;6155457;23;20017;-85
2021/06/01 08:00:12;;;;;;;3.50;2.33;;;22.70;94.40;;;;;;6154965;23;20013;-84
2021/06/01 08:02:40;;;;;;;2.97;2.03;;;22.80;94.20;;;;;;6153576;23;20021;-84
2021/06/01 08:05:09;;;;;;;3.55;2.20;;;22.80;94.10;;;;;;6152930;23;20021;-81
2021/06/01 08:07:36;;;;;;;4.20;2.30;;;22.90;93.90;;;;;;6129464;23;20009;-85
2021/06/01 08:10:04;;;;;;;4.35;2.45;;;22.80;93.70;;;;;;6155413;23;20512;-85
2021/06/01 08:12:33;;;;;;;4.82;2.58;;;22.80;93.80;;;;;;6153363;23;20511;-85
2021/06/01 08:15:01;;;;;;;7.60;2.60;;;22.80;93.80;;;;;;6155716;23;20077;-84
2021/06/01 08:17:27;;;;;;;5.20;2.20;;;22.90;93.60;;;;;;6153717;23;20072;-85
2021/06/01 08:19:56;;;;;;;4.13;2.20;;;23.10;93.60;;;;;;6153830;23;20405;-85
2021/06/01 08:24:50;;;;;;;3.72;2.33;;;23.40;93.30;;;;;;6153284;23;20018;-83
2021/06/01 08:27:17;;;;;;;6.10;2.20;;;23.50;92.70;;;;;;6154216;23;20110;-85
2021/06/01 08:29:44;;;;;;;4.47;2.10;;;23.60;92.50;;;;;;6153680;23;20081;-85
2021/06/01 08:32:11;;;;;;;3.83;2.10;;;23.80;92.50;;;;;;6152786;23;20017;-85
2021/06/01 08:34:37;;;;;;;6.30;2.08;;;23.90;92.20;;;;;;6155197;23;20385;-84
2021/06/01 08:37:04;;;;;;;5.95;2.00;;;24.00;91.90;;;;;;6153202;23;20523;-85
2021/06/01 08:39:31;;;;;;;2.97;2.00;;;24.10;91.60;;;;;;6153314;23;20504;-85
2021/06/01 08:41:58;;;;;;;4.20;2.05;;;24.30;91.60;;;;;;6154883;23;20041;-85
2021/06/01 08:44:27;;;;;;;7.05;2.20;;;24.40;91.60;;;;;;6154758;23;20025;-84
2021/06/01 08:46:55;;;;;;;6.45;2.58;;;24.40;91.30;;;;;;6152270;23;20021;-86
2021/06/01 08:49:23;;;;;;;5.93;1.85;;;24.60;91.20;;;;;;6154358;23;20021;-85
2021/06/01 08:51:50;;;;;;;4.72;2.00;;;24.60;90.90;;;;;;6154850;23;20021;-85
2021/06/01 08:54:17;;;;;;;4.90;2.47;;;24.70;90.90;;;;;;6154659;23;20076;-84
2021/06/01 08:56:45;;;;;;;6.45;2.20;;;24.80;91.00;;;;;;6152464;23;20021;-84
2021/06/01 08:59:13;;;;;;;3.17;1.95;;;24.90;91.30;;;;;;6152781;23;20026;-86
2021/06/01 09:01:42;;;;;;;3.78;2.13;;;25.00;91.10;;;;;;6153411;23;20017;-85
2021/06/01 09:04:11;;;;;;;5.25;1.80;;;25.10;90.60;;;;;;6153094;23;20028;-86
2021/06/01 09:06:47;;;;;;;3.90;2.13;;;25.20;90.40;;;;;;6154569;23;20528;-85
2021/06/01 09:23:04;;;;;;;2.13;1.67;;;25.60;90.20;;;;;;6153329;23;20028;-85
2021/06/01 09:25:56;;;;;;;3.05;1.60;;;25.70;90.30;;;;;;6152763;23;20511;-84
2021/06/01 09:28:23;;;;;;;5.22;1.80;;;25.70;89.80;;;;;;6152789;23;20449;-86
2021/06/01 09:30:58;;;;;;;4.50;1.90;;;25.90;89.60;;;;;;6155015;23;20014;-85
2021/06/01 09:33:30;;;;;;;3.60;1.70;;;25.90;89.90;;;;;;6152157;23;20092;-85
2021/06/01 09:36:00;;;;;;;4.32;2.00;;;26.10;90.10;;;;;;6152809;23;20018;-85
2021/06/01 09:38:29;;;;;;;6.70;2.38;;;26.20;89.80;;;;;;6152358;23;20072;-86
2021/06/01 09:41:05;;;;;;;3.50;1.42;;;26.20;89.40;;;;;;6153052;23;20068;-85
2021/06/01 09:43:50;;;;;;;4.35;1.75;;;26.30;87.60;;;;;;6152647;23;20018;-85
2021/06/01 09:46:25;;;;;;;3.15;1.65;;;26.40;87.50;;;;;;6152597;23;20061;-85
2021/06/01 09:48:54;;;;;;;4.72;1.75;;;26.50;87.50;;;;;;6153076;23;20020;-85
2021/06/01 09:51:34;;;;;;;5.20;1.95;;;26.50;88.10;;;;;;6152440;23;20021;-85
2021/06/01 09:54:35;;;;;;;2.70;1.80;;;26.60;87.50;;;;;;6152810;23;20018;-87
2021/06/01 09:57:18;;;;;;;3.85;1.58;;;26.60;86.00;;;;;;6152614;23;20021;-86
2021/06/01 10:00:15;;;;;;;4.18;1.85;;;26.70;85.00;;;;;;6152842;23;20013;-86
2021/06/01 10:02:49;;;;;;;3.63;1.80;;;26.70;85.50;;;;;;6151350;23;20041;-85
2021/06/01 10:05:25;;;;;;;4.20;1.80;;;26.80;87.00;;;;;;6153566;23;20253;-85
2021/06/01 10:07:54;;;;;;;3.63;1.88;;;26.90;86.70;;;;;;6151584;23;20068;-87
2021/06/01 10:10:28;;;;;;;3.70;1.90;;;26.90;86.20;;;;;;6152580;23;20025;-87
2021/06/01 10:13:04;;;;;;;3.05;1.95;;;27.00;86.00;;;;;;6152908;23;20072;-86
2021/06/01 10:15:32;;;;;;;2.17;1.50;;;27.00;85.80;;;;;;6152338;23;20073;-86
2021/06/01 10:18:02;;;;;;;6.38;1.77;;;27.10;86.70;;;;;;6153109;23;20029;-86
2021/06/01 10:20:31;;;;;;;;;;;27.20;86.80;;;;;;6152661;23;20069;-86
2021/06/01 10:23:00;;;;;;;3.42;1.80;;;27.30;85.60;;;;;;6153097;23;19917;-86
2021/06/01 10:25:27;;;;;;;;;;;27.30;85.70;;;;;;6152871;23;20092;-86
2021/06/01 10:27:59;;;;;;;2.00;1.60;;;27.30;84.10;;;;;;6153678;23;19939;-85
2021/06/01 10:30:27;;;;;;;4.15;1.60;;;27.30;85.40;;;;;;6154243;23;20381;-86
2021/06/01 10:33:03;;;;;;;4.05;1.90;;;27.30;84.50;;;;;;6153122;23;20018;-87
2021/06/01 10:35:36;;;;;;;2.90;1.70;;;27.40;85.40;;;;;;6154419;23;20013;-87
2021/06/01 10:50:06;;;;;;;2.47;1.58;;;27.60;83.20;;;;;;6155506;23;20453;-86
2021/06/01 10:52:33;;;;;;;2.40;1.38;;;27.60;83.20;;;;;;6149128;23;20014;-87
2021/06/01 10:55:09;;;;;;;1.95;1.60;;;27.60;82.80;;;;;;6149204;23;20014;-87
2021/06/01 10:57:57;;;;;;;3.38;1.30;;;27.60;82.60;;;;;;6147760;23;20070;-86
2021/06/01 11:03:19;;;;;;;1.85;1.40;;;27.70;82.80;;;;;;6152852;23;20021;-87
2021/06/01 11:05:59;;;;;;;2.88;1.42;;;27.70;83.00;;;;;;6153597;23;20018;-87
2021/06/01 11:08:45;;;;;;;2.13;1.50;;;27.70;81.00;;;;;;6151392;23;20021;-86
2021/06/01 11:11:28;;;;;;;2.40;1.20;;;27.70;81.00;;;;;;6150234;23;20477;-87
2021/06/01 11:14:00;;;;;;;3.45;1.40;;;27.70;81.70;;;;;;6152024;23;20100;-89
2021/06/01 11:16:54;;;;;;;1.73;1.25;;;27.60;81.90;;;;;;6152768;23;20381;-87
2021/06/01 11:19:26;;;;;;;2.20;1.30;;;27.60;81.50;;;;;;6151692;23;20021;-87
2021/06/01 11:22:03;;;;;;;1.95;1.60;;;27.60;82.10;;;;;;6153394;23;20457;-89
2021/06/01 11:25:09;;;;;;;2.75;1.50;;;27.60;82.20;;;;;;6151618;23;20080;-88
2021/06/01 11:33:23;;;;;;;5.10;1.20;;;27.80;81.80;;;;;;6152282;23;20077;-87
2021/06/01 11:35:56;;;;;;;4.72;1.60;;;27.80;81.40;;;;;;6152208;23;20092;-88
2021/06/01 11:43:40;;;;;;;1.30;1.20;;;27.90;80.90;;;;;;6155586;23;20025;-87
2021/06/01 11:46:13;;;;;;;2.13;1.38;;;27.90;81.00;;;;;;6153640;23;20068;-87
2021/06/01 11:51:25;;;;;;;4.03;1.48;;;27.90;78.90;;;;;;6155152;23;20461;-88
2021/06/01 11:54:08;;;;;;;2.40;1.23;;;28.00;80.30;;;;;;6154083;23;20393;-87
2021/06/01 12:20:58;;;;;;;4.40;2.20;;;27.60;84.70;;;;;;6154781;23;20022;-87
2021/06/01 12:23:38;;;;;;;3.47;2.35;;;27.50;85.30;;;;;;6153761;23;20438;-87
2021/06/01 12:26:26;;;;;;;5.18;2.67;;;27.50;85.40;;;;;;6154968;23;20013;-87
2021/06/01 12:32:35;;;;;;;2.55;2.17;;;27.50;86.50;;;;;;6121260;23;20085;-89
2021/06/01 13:20:30;;;;;;;6.05;2.60;;;27.20;88.10;;;;;;6154710;23;20349;-88
2021/06/01 13:40:53;;;;;;;3.70;2.50;;;27.10;89.30;;;;;;6183919;23;20469;-88
2021/06/01 13:46:19;;;;;;;4.75;2.72;;;27.10;90.00;;;;;;6182489;23;20079;-88
2021/06/01 13:56:36;;;;;;;3.05;2.45;;;27.30;89.10;;;;;;6183363;23;20020;-90
2021/06/01 13:59:10;;;;;;;2.92;2.67;;;27.20;88.80;;;;;;6159696;23;20099;-88
2021/06/01 14:02:08;;;;;;;3.80;2.38;;;27.20;88.70;;;;;;6159137;23;20048;-89
2021/06/01 15:29:22;;;;;;;5.25;3.03;;;26.40;90.70;;;;;;6155756;23;20449;-87
2021/06/01 15:54:03;;;;;;;5.38;3.45;;;25.70;91.40;;;;;;6153651;23;20032;-89
2021/06/01 16:13:26;;;;;;;3.97;3.03;;;25.40;91.70;;;;;;6154172;23;20044;-89
2021/06/01 16:21:37;;;;;;;3.65;2.72;;;25.60;91.70;;;;;;6153212;23;20017;-91
2021/06/01 16:32:55;;;;;;;4.50;2.80;;;26.00;91.10;;;;;;6179796;23;20021;-92
2021/06/01 16:43:52;;;;;;;3.92;3.30;;;26.10;91.00;;;;;;6179454;23;20021;-91
2021/06/01 17:04:10;;;;;;;7.40;3.53;;;25.50;91.90;;;;;;6180416;23;20416;-93
2021/06/01 17:06:13;;;;;;;6.28;3.53;;;25.40;92.00;;;;;;6147648;23;20014;-90
2021/06/01 17:11:35;;;;;;;4.32;3.25;;;25.20;92.10;;;;;;6151943;23;20747;-89
2021/06/01 17:14:03;;;;;;;4.32;3.20;;;25.20;92.20;;;;;;6152889;23;20013;-92
2021/06/01 17:16:43;;;;;;;4.28;3.50;;;25.10;92.30;;;;;;6146166;23;20021;-89
2021/06/01 17:36:00;;;;;;;6.38;3.90;;;24.50;93.10;;;;;;6032592;23;20672;-87
2021/06/01 17:38:28;;;;;;;4.25;3.40;;;24.40;93.20;;;;;;6033385;23;20099;-88
2021/06/01 17:40:59;;;;;;;5.88;3.88;;;24.40;93.40;;;;;;6033559;23;20075;-89
2021/06/01 17:43:33;;;;;;;8.20;4.10;;;24.30;93.60;;;;;;6031951;23;20060;-88
2021/06/01 17:46:04;;;;;;;6.88;4.47;;;24.30;93.70;;;;;;6034618;23;20546;-88
2021/06/01 17:51:02;;;;;;;5.68;4.20;;;24.20;93.90;;;;;;6032479;23;20019;-86
2021/06/01 17:53:31;;;;;;;5.82;4.05;;;24.10;94.10;;;;;;6032579;23;20086;-89
2021/06/01 17:56:00;;;;;;;5.65;4.20;;;24.00;94.10;;;;;;6032956;23;20506;-87
2021/06/01 17:58:27;;;;;;;;;;;24.00;94.30;;;;;;6032247;23;20055;-86
2021/06/01 18:00:54;;;;;;;6.13;4.30;;;23.90;94.60;;;;;;6009029;23;19918;-86
2021/06/01 18:03:25;;;;;;;8.32;5.78;;;23.80;94.40;;;;;;6007109;23;20412;-87
2021/06/01 18:05:53;;;;;;;10.82;8.38;;;23.80;94.60;;;;;;6008922;23;20027;-87
2021/06/01 18:08:35;;;;;;;11.93;7.22;;;23.80;94.80;;;;;;6006576;23;20088;-87
2021/06/01 19:51:23;;;;;;;8.63;5.05;;;21.50;99.50;;;;;;6090481;23;20038;-89
2021/06/01 19:53:51;;;;;;;6.88;5.97;;;21.40;99.60;;;;;;6091667;23;20434;-89
2021/06/01 19:56:18;;;;;;;8.35;5.85;;;21.40;99.80;;;;;;6066988;23;20029;-88
2021/06/01 19:58:47;;;;;;;7.60;5.38;;;21.40;99.90;;;;;;6067849;23;20018;-87
2021/06/01 20:01:15;;;;;;;6.18;5.57;;;21.30;99.90;;;;;;6066052;23;20058;-90
2021/06/01 20:03:42;;;;;;;7.20;5.07;;;21.30;99.90;;;;;;6068284;23;20018;-89
2021/06/01 20:06:11;;;;;;;8.02;5.28;;;21.30;99.90;;;;;;6053718;23;20069;-87
2021/06/01 20:08:41;;;;;;;7.32;4.75;;;21.20;99.90;;;;;;6100442;23;20473;-86
2021/06/01 20:11:09;;;;;;;7.78;5.35;;;21.20;99.90;;;;;;6151717;23;20014;-87
2021/06/01 20:13:37;;;;;;;;;;;21.10;99.90;;;;;;6151400;23;20024;-85
2021/06/01 20:16:04;;;;;;;7.00;5.63;;;21.10;99.90;;;;;;6148976;23;19975;-86
2021/06/01 20:18:33;;;;;;;10.68;5.70;;;21.00;99.90;;;;;;6150465;23;20491;-86
2021/06/01 20:21:02;;;;;;;7.68;5.85;;;21.00;99.90;;;;;;6150862;23;20592;-87
2021/06/01 20:23:49;;;;;;;8.27;5.45;;;21.00;99.90;;;;;;6141533;23;20020;-86
2021/06/01 20:26:17;;;;;;;7.15;5.40;;;20.90;99.90;;;;;;6147739;23;20018;-87
2021/06/01 20:28:51;;;;;;;7.67;5.40;;;20.90;99.90;;;;;;6150781;23;20022;-87
2021/06/01 20:31:30;;;;;;;8.65;6.03;;;20.90;99.90;;;;;;6149622;23;20026;-87
2021/06/01 20:34:03;;;;;;;7.68;5.40;;;20.80;99.90;;;;;;6150797;23;20461;-87
2021/06/01 20:36:30;;;;;;;8.63;6.30;;;20.80;99.90;;;;;;6150462;23;20113;-87
2021/06/01 20:39:02;;;;;;;8.93;5.80;;;20.80;99.90;;;;;;6149544;23;20480;-86
2021/06/01 20:41:30;;;;;;;5.93;5.15;;;20.80;99.90;;;;;;6145491;23;20065;-86
2021/06/01 20:43:58;;;;;;;9.88;5.68;;;20.80;99.90;;;;;;6144115;23;20473;-88
2021/06/01 20:46:30;;;;;;;6.97;5.57;;;20.70;99.90;;;;;;6148884;23;20022;-87
2021/06/01 20:48:58;;;;;;;9.63;5.60;;;20.70;99.90;;;;;;6150599;23;20018;-88
2021/06/01 20:51:27;;;;;;;6.60;5.60;;;20.70;99.90;;;;;;6151074;23;20331;-88
2021/06/01 20:53:58;;;;;;;7.30;5.65;;;20.60;99.90;;;;;;6150567;23;20017;-87
2021/06/01 20:56:30;;;;;;;9.20;5.70;;;20.60;99.90;;;;;;6153028;23;20018;-88
2021/06/01 20:58:58;;;;;;;8.25;4.90;;;20.60;99.90;;;;;;6153759;23;20014;-88
2021/06/01 21:01:29;;;;;;;;;;;20.60;99.90;;;;;;6153547;23;20026;-87
2021/06/01 21:03:59;;;;;;;7.55;5.50;;;20.50;99.90;;;;;;6153707;23;19991;-86
2021/06/01 21:06:29;;;;;;;7.32;5.47;;;20.50;99.90;;;;;;6150193;23;20449;-86
2021/06/01 21:08:58;;;;;;;7.65;5.32;;;20.50;99.90;;;;;;6150938;23;20017;-88
2021/06/01 21:11:25;;;;;;;9.43;5.90;;;20.40;99.90;;;;;;6150549;23;20021;-87
2021/06/01 21:13:52;;;;;;;6.07;5.40;;;20.40;99.90;;;;;;6151387;23;20014;-88
2021/06/01 21:16:24;;;;;;;8.15;5.45;;;20.40;99.90;;;;;;6152905;23;20025;-89
2021/06/01 21:18:51;;;;;;;8.98;5.80;;;20.30;99.90;;;;;;6151286;23;20013;-87
2021/06/01 21:21:19;;;;;;;11.65;6.15;;;20.40;99.90;;;;;;6150277;23;20084;-87
2021/06/01 21:23:46;;;;;;;8.43;5.60;;;20.30;99.90;;;;;;6151814;23;20021;-87
2021/06/01 21:26:13;;;;;;;9.77;6.40;;;20.20;99.90;;;;;;6154518;23;20385;-87
2021/06/01 21:28:41;;;;;;;7.78;5.85;;;20.20;99.90;;;;;;6154829;23;20025;-86
2021/06/01 21:31:09;;;;;;;9.13;6.30;;;20.10;99.90;;;;;;6152173;23;20024;-89
2021/06/01 21:33:41;;;;;;;9.25;6.35;;;20.10;99.90;;;;;;6154681;23;20249;-88
2021/06/01 21:36:12;;;;;;;11.40;6.35;;;20.00;99.90;;;;;;6152574;23;20017;-87
2021/06/01 21:38:44;;;;;;;9.07;6.75;;;20.00;99.90;;;;;;6153040;23;20072;-88
2021/06/01 21:41:12;;;;;;;9.15;6.07;;;19.90;99.90;;;;;;6152268;23;20028;-88
2021/06/01 21:43:41;;;;;;;10.73;7.00;;;19.90;99.90;;;;;;6153014;23;20064;-87
2021/06/01 21:46:09;;;;;;;11.70;6.68;;;19.90;99.90;;;;;;6154122;23;20021;-87
2021/06/01 21:48:45;;;;;;;11.10;6.50;;;19.80;99.90;;;;;;6153057;23;20457;-87
2021/06/01 21:51:13;;;;;;;11.52;6.80;;;19.70;99.90;;;;;;6152257;23;20072;-88
2021/06/01 21:53:43;;;;;;;10.43;6.90;;;19.70;99.90;;;;;;6153045;23;20021;-87
2021/06/01 21:56:11;;;;;;;10.38;6.57;;;19.70;99.90;;;;;;6152316;23;20018;-88
2021/06/01 21:58:39;;;;;;;9.23;6.72;;;19.60;99.90;;;;;;6153059;23;20021;-88
2021/06/01 22:01:07;;;;;;;9.07;6.60;;;19.60;99.90;;;;;;6152183;23;20519;-87
2021/06/01 22:03:35;;;;;;;7.60;6.40;;;19.50;99.90;;;;;;6154714;23;20042;-87
2021/06/01 22:06:02;;;;;;;9.18;6.97;;;19.50;99.90;;;;;;6153026;23;20085;-87
2021/06/01 22:08:29;;;;;;;9.17;6.90;;;19.50;99.90;;;;;;6152639;23;20068;-87
2021/06/01 22:10:56;;;;;;;8.00;6.65;;;19.50;99.90;;;;;;6153359;23;20068;-87
2021/06/01 22:13:23;;;;;;;11.57;6.45;;;19.50;99.90;;;;;;6152596;23;20096;-87
2021/06/01 22:15:50;;;;;;;9.40;6.43;;;19.40;99.90;;;;;;6152953;23;20021;-87
2021/06/01 22:18:19;;;;;;;14.70;6.90;;;19.40;99.90;;;;;;6152502;23;20048;-87
2021/06/01 22:20:59;;;;;;;8.73;6.80;;;19.40;99.90;;;;;;6153090;23;20021;-87
2021/06/01 22:23:44;;;;;;;11.55;6.75;;;19.30;99.90;;;;;;6154425;23;20076;-87
2021/06/01 22:26:14;;;;;;;9.50;6.50;;;19.30;99.90;;;;;;6154245;23;20088;-88
2021/06/01 22:28:45;;;;;;;10.93;6.63;;;19.30;99.90;;;;;;6154915;23;20021;-87
2021/06/01 22:31:14;;;;;;;10.25;6.72;;;19.30;99.90;;;;;;6153507;23;20026;-87
2021/06/01 22:33:43;;;;;;;12.90;6.13;;;19.30;99.90;;;;;;6156467;23;20018;-87
2021/06/01 22:36:22;;;;;;;12.52;6.60;;;19.30;99.90;;;;;;6154050;23;20075;-87
2021/06/01 22:38:55;;;;;;;9.05;6.65;;;19.30;99.90;;;;;;6154777;23;20014;-87
2021/06/01 22:41:24;;;;;;;8.27;6.43;;;19.20;99.90;;;;;;6153992;23;20029;-87
2021/06/01 22:43:52;;;;;;;10.50;6.30;;;19.20;99.90;;;;;;6154960;23;20076;-86
2021/06/01 22:46:22;;;;;;;10.30;6.93;;;19.20;99.90;;;;;;6154207;23;20480;-86
2021/06/01 22:48:52;;;;;;;11.32;6.65;;;19.10;99.90;;;;;;6154799;23;20089;-86
2021/06/01 22:51:25;;;;;;;12.13;7.10;;;19.10;99.90;;;;;;6155356;23;20044;-86
2021/06/01 22:53:53;;;;;;;13.02;7.50;;;19.10;99.90;;;;;;6154660;23;20076;-86
2021/06/01 22:56:23;;;;;;;9.20;7.72;;;19.00;99.90;;;;;;6155121;23;20085;-86
2021/06/01 22:58:52;;;;;;;11.27;7.50;;;19.00;99.90;;;;;;6154810;23;20085;-86
